Terminal Aerodrome Forecast
Issued by NWS

Home | Current Version | Previous Version | Text Only | Print | Product List | Glossary On
Versions: 1 2 3 4 5 6 7 8 9 10 11 12 13 14 15 16 17 18 19 20 21
660
FTUS41 KAKQ 161521 AAB
TAFPHF
TAF AMD
KPHF 161521Z 1615/1712 VRB03KT 1SM BR OVC002
      TEMPO 1615/1616 3SM OVC003
     FM161600 03004KT 3SM BR OVC003
     FM161700 VRB03KT P6SM OVC003
     FM170100 VRB03KT P6SM BKN002
     FM171000 32004KT P6SM -RASN OVC002=

USA.gov is the U.S. government's official web portal to all federal, state and local government web resources and services.